• Join FlightAware (Why Join?)
  • Login
  • US Flag GB Flag 
07:44 EST


 

Airport Tracker/Info


-or-


 

Live Flight TrackerFlight Track Log ✈ UAL4695 ✈ 27-Apr-2013 ✈ KEWR - KMHT

Flight Track Log - Related Links

Times and Time Zones

All times are in EDT time to prevent confusion due to time zone crossing. See the UAL4695 flight status page for this flight to view local times or setup timezone preferences in your user account.

Time Position Orientation Groundspeed Altitude Reporting Facility
EDT Latitude Longitude Course Direction KTS MPH feet Rate Location/Type
21:17 40.6500 -74.2167 40° Northeast 209 241 3,100  Level New York TRACON
21:18 40.6833 -74.2000 21° North 226 260 5,500 2,316 Climbing New York TRACON
21:19 40.8835 -73.9416 21° North  Level FlightAware Approximate
21:19 40.7500 -74.1500 30° Northeast 259 298 7,500  Level New York TRACON
21:20 40.9482 -73.8685 37° Northeast  Level FlightAware Approximate
21:21 41.0196 -73.7946 40° Northeast  Level FlightAware Approximate
21:21 40.8722 -74.0072 41° Northeast 281 323 10,000  Level Boston Center
21:22 41.0887 -73.7169 40° Northeast  Level FlightAware Approximate
21:22 40.9358 -73.9375 40° Northeast 276 318 11,200  Level Boston Center
21:23 41.0014 -73.8619 41° Northeast 292 336 12,600 1,550 Climbing Boston Center
21:24 41.0753 -73.7783 40° Northeast 332 382 14,300 1,550 Climbing Boston Center
21:25 41.1472 -73.6969 40° Northeast 340 391 15,700 1,500 Climbing Boston Center
21:26 41.2211 -73.6103 41° Northeast 345 397 17,300 1,300 Climbing Boston Center
21:27 41.2947 -73.5286 40° Northeast 340 391 18,300 1,250 Climbing Boston Center
21:28 41.3747 -73.4386 40° Northeast 353 406 19,800 1,550 Climbing Boston Center
21:29 41.4483 -73.3539 41° Northeast 353 406 21,400 1,450 Climbing Boston Center
21:30 41.5222 -73.2608 43° Northeast 353 406 22,700 800 Climbing Boston Center
21:31 41.6033 -73.2508 North 326 375 23,000 150 Climbing Boston Center
21:32 41.7075 -73.2825 347° North 335 386 23,000  Level Boston Center
21:33 41.8136 -73.3036 352° North 356 410 23,000  Level Boston Center
21:34 41.9178 -73.3050 359° North 367 422 23,000  Level Boston Center
21:35 42.0219 -73.3008 North 372 428 23,000 -50 Level Boston Center
21:36 42.1303 -73.2967 North 377 434 22,900 -550 Descending Boston Center
21:37 42.2367 -73.2897 North 377 434 21,900 -1,100 Descending Boston Center
21:38 42.3514 -73.2772 North 382 440 20,700 -1,100 Descending Boston Center
21:39 42.4497 -73.2447 14° North 382 440 19,700 -850 Descending Boston Center
21:40 42.5067 -73.1300 56° Northeast 332 382 19,000 -350 Descending Boston Center
21:41 42.5533 -72.9925 65° Northeast 372 428 19,000  Level Boston Center
21:42 42.5997 -72.8603 64° Northeast 386 444 19,000 -200 Level Boston Center
21:43 42.6503 -72.7225 63° Northeast 392 451 18,600 -950 Descending Boston Center
21:44 42.6919 -72.5925 66° East 387 445 17,100 -2,000 Descending Boston Center
21:45 42.7381 -72.4600 65° Northeast 381 438 14,600 -2,450 Descending Boston Center
21:46 42.7817 -72.3325 65° Northeast 376 433 12,200 -1,750 Descending Boston Center
21:47 42.8003 -72.2025 79° East 364 419 11,100 -900 Descending Boston Center
21:48 42.8189 -72.1033 76° East 322 371 10,400 -950 Descending Boston Center
21:49 42.8747 -72.0181 48° Northeast 276 318 9,200 -1,250 Descending Boston Center
21:50 42.9225 -71.9525 45° Northeast 271 312 7,900 -1,350 Descending Boston Center
21:51 42.9783 -71.8669 48° Northeast 271 312 6,500 -1,200 Descending Boston Center
21:52 43.0156 -71.7928 56° Northeast 259 298 5,500 -1,350 Descending Boston Center
21:53 43.0400 -71.6986 70° East 233 268 3,800 -1,300 Descending Boston Center
21:54 43.0539 -71.6303 74° East 220 253 2,900 -591 Descending Boston Center
21:56 43.0639 -71.5450 81° East 215 247 2,500 -318 Descending Boston Center
21:57 43.0322 -71.4942 130° Southeast 137 158 2,200 -450 Descending Boston Center
21:58 43.0050 -71.4778 156° South 127 146 1,600 -600 Descending Boston Center